Govert, South Dakota
Current Conditions -  °F | °C
As of 6:53 PM on Friday 24 Oct 2014 (Local Time) from KHEI Reporting Station
Overcast Overcast  
Wind Chill: 51°   Ceiling: 11000
Heat Index: 51°   Visibility: 10mi
Dew Point: 35°   Wind: 5mph
Humidity: 54%   Direction: 300°WNW
Pressure: 30.05"   Gusts: NA
Location:  45.5161°N, 102.519°W
Report Text: KHEI 250053Z AUTO 30004KT 10SM OVC110 11/02 A3005 RMK AO2 SLP184 T01060017
Loading
Personal Weather Stations






























Interactive Weather Map
Tropical Storm Tracking
New forecast layout! Learn more

10-Day Weather Forecast

Advertisements
Track Severe Weather on mobile